createdAt,value
2022-12-24T00:01:04.718Z,101415.72
2022-12-24T00:03:35.501Z,101412.22
2022-12-24T00:06:13.803Z,101411.38
2022-12-24T00:08:41.499Z,101414.06
2022-12-24T00:11:08.248Z,101416.72
2022-12-24T00:13:35.250Z,101427.03
2022-12-24T00:16:02.359Z,101428.03
2022-12-24T00:18:29.122Z,101428.06
2022-12-24T00:20:56.005Z,101413.47
2022-12-24T00:23:22.983Z,101410.94
2022-12-24T00:25:49.818Z,101407.50
2022-12-24T00:28:17.454Z,101406.66
2022-12-24T00:30:44.684Z,101410.09
2022-12-24T00:33:11.845Z,101417.81
2022-12-24T00:35:40.171Z,101412.53
2022-12-24T00:38:08.348Z,101416.72
2022-12-24T00:40:35.233Z,101430.47
2022-12-24T00:43:02.101Z,101440.66
2022-12-24T00:45:28.916Z,101441.34
2022-12-24T00:47:55.775Z,101443.78
2022-12-24T00:50:22.647Z,101455.75
2022-12-24T00:52:49.914Z,101443.59
2022-12-24T00:55:16.801Z,101446.16
2022-12-24T00:57:43.675Z,101443.59
2022-12-24T01:00:10.798Z,101437.53
2022-12-24T01:02:38.211Z,101431.56
2022-12-24T01:05:11.620Z,101434.13
2022-12-24T01:07:44.454Z,101406.63
2022-12-24T01:10:13.556Z,101400.56
2022-12-24T01:12:40.509Z,101410.88
2022-12-24T01:15:07.908Z,101412.59
2022-12-24T01:17:36.006Z,101404.91
2022-12-24T01:20:04.834Z,101417.78
2022-12-24T01:22:31.622Z,101427.22
2022-12-24T01:24:58.461Z,101432.38
2022-12-24T01:27:25.699Z,101439.25
2022-12-24T01:29:52.542Z,101453.84
2022-12-24T01:32:19.479Z,101454.72
2022-12-24T01:34:46.257Z,101457.31
2022-12-24T01:37:13.173Z,101457.31
2022-12-24T01:39:39.956Z,101464.19
2022-12-24T01:42:40.086Z,101450.50
2022-12-24T01:45:41.349Z,101442.84
2022-12-24T01:48:17.680Z,101442.78
2022-12-24T01:50:44.983Z,101448.09
2022-12-24T01:53:14.178Z,101444.66
2022-12-24T01:56:06.877Z,101447.22
2022-12-24T01:58:36.212Z,101459.38
2022-12-24T02:01:07.133Z,101464.59
2022-12-24T02:03:34.295Z,101460.38
2022-12-24T02:06:01.809Z,101456.88
2022-12-24T02:08:40.224Z,101451.81
2022-12-24T02:11:19.644Z,101449.25
2022-12-24T02:13:55.811Z,101438.03
2022-12-24T02:16:22.712Z,101429.41
2022-12-24T02:19:20.242Z,101424.25
2022-12-24T02:22:16.159Z,101401.84
2022-12-24T02:25:04.046Z,101390.72
2022-12-24T02:28:05.735Z,101361.47
2022-12-24T02:30:37.301Z,101370.94
2022-12-24T02:33:41.788Z,101383.84
2022-12-24T02:36:34.975Z,101389.03
2022-12-24T02:39:09.181Z,101391.66
2022-12-24T02:41:58.939Z,101390.19
2022-12-24T02:44:29.154Z,101401.47
2022-12-24T02:46:58.705Z,101415.16
2022-12-24T02:49:25.572Z,101405.56
2022-12-24T02:51:52.403Z,101417.50
2022-12-24T02:54:19.373Z,101420.06
2022-12-24T02:57:01.868Z,101436.41
2022-12-24T02:59:47.882Z,101441.63
2022-12-24T03:02:35.099Z,101440.72
2022-12-24T03:05:52.087Z,101423.59
2022-12-24T03:08:35.921Z,101408.94
2022-12-24T03:11:09.398Z,101414.09
2022-12-24T03:13:37.088Z,101414.09
2022-12-24T03:16:09.017Z,101406.56
2022-12-24T03:18:40.871Z,101409.09
2022-12-24T03:21:11.840Z,101395.31
2022-12-24T03:23:38.751Z,101397.81
2022-12-24T03:26:09.131Z,101407.25
2022-12-24T03:28:38.747Z,101402.19
2022-12-24T03:31:06.770Z,101421.81
2022-12-24T03:33:34.286Z,101427.88
2022-12-24T03:36:01.664Z,101427.03
2022-12-24T03:38:28.606Z,101426.97
2022-12-24T03:40:55.451Z,101421.81
2022-12-24T03:43:22.378Z,101411.56
2022-12-24T03:45:51.868Z,101413.28
2022-12-24T03:48:18.851Z,101413.38
2022-12-24T03:50:45.635Z,101413.44
2022-12-24T03:53:12.472Z,101404.84
2022-12-24T03:55:40.019Z,101403.94
2022-12-24T03:58:06.958Z,101404.91
2022-12-24T04:00:33.727Z,101405.00
2022-12-24T04:03:00.550Z,101388.56
2022-12-24T04:05:27.604Z,101390.34
2022-12-24T04:07:54.407Z,101404.13
2022-12-24T04:10:21.176Z,101412.72
2022-12-24T04:12:47.938Z,101426.47
2022-12-24T04:15:14.745Z,101444.50
2022-12-24T04:17:41.838Z,101448.88
2022-12-24T04:20:09.378Z,101437.81
2022-12-24T04:22:36.257Z,101425.88
2022-12-24T04:25:03.116Z,101422.41
2022-12-24T04:27:31.293Z,101417.25
2022-12-24T04:29:58.199Z,101415.44
2022-12-24T04:32:27.033Z,101406.03
2022-12-24T04:34:53.876Z,101406.03
2022-12-24T04:37:20.718Z,101403.44
2022-12-24T04:39:47.481Z,101398.25
2022-12-24T04:42:14.461Z,101412.09
2022-12-24T04:44:41.231Z,101422.34
2022-12-24T04:47:08.036Z,101413.75
2022-12-24T04:49:34.860Z,101407.69
2022-12-24T04:52:01.860Z,101426.56
2022-12-24T04:54:28.658Z,101423.13
2022-12-24T04:56:55.453Z,101429.94
2022-12-24T04:59:24.964Z,101428.22
2022-12-24T05:01:51.974Z,101422.16
2022-12-24T05:04:18.830Z,101421.41
2022-12-24T05:06:45.671Z,101412.00
2022-12-24T05:09:12.743Z,101411.00
2022-12-24T05:11:39.546Z,101395.59
2022-12-24T05:14:06.290Z,101386.19
2022-12-24T05:16:33.166Z,101380.13
2022-12-24T05:18:59.975Z,101386.91
2022-12-24T05:21:26.786Z,101389.44
2022-12-24T05:24:12.589Z,101381.69
2022-12-24T05:26:42.313Z,101373.13
2022-12-24T05:29:12.364Z,101388.53
2022-12-24T05:31:40.313Z,101404.75
2022-12-24T05:34:07.833Z,101409.03
2022-12-24T05:36:34.722Z,101398.84
2022-12-24T05:39:07.211Z,101400.63
2022-12-24T05:41:36.912Z,101409.31
2022-12-24T05:44:03.715Z,101430.69
2022-12-24T05:46:30.574Z,101438.34
2022-12-24T05:48:57.416Z,101435.69
2022-12-24T05:51:24.246Z,101425.41
2022-12-24T05:53:51.693Z,101430.59
2022-12-24T05:56:23.414Z,101448.63
2022-12-24T05:58:52.178Z,101460.63
2022-12-24T06:01:19.710Z,101459.81
2022-12-24T06:03:46.772Z,101460.66
2022-12-24T06:06:19.363Z,101466.56
2022-12-24T06:08:46.818Z,101469.16
2022-12-24T06:11:15.300Z,101465.69
2022-12-24T06:13:43.242Z,101458.91
2022-12-24T06:16:14.486Z,101461.47
2022-12-24T06:18:42.232Z,101466.66
2022-12-24T06:21:10.010Z,101471.78
2022-12-24T06:23:43.555Z,101489.13
2022-12-24T06:26:14.362Z,101480.47
2022-12-24T06:28:41.271Z,101485.56
2022-12-24T06:31:13.173Z,101485.50
2022-12-24T06:33:40.284Z,101470.88
2022-12-24T06:36:17.571Z,101464.84
2022-12-24T06:38:46.284Z,101466.66
2022-12-24T06:41:13.294Z,101453.75
2022-12-24T06:43:44.094Z,101439.09
2022-12-24T06:46:11.004Z,101436.47
2022-12-24T06:48:40.235Z,101448.50
2022-12-24T06:51:07.154Z,101452.78
2022-12-24T06:53:34.117Z,101448.50
2022-12-24T06:56:05.448Z,101445.00
2022-12-24T06:58:33.356Z,101433.88
2022-12-24T07:01:08.111Z,101441.56
2022-12-24T07:03:35.757Z,101449.41
2022-12-24T07:06:02.560Z,101464.03
2022-12-24T07:08:29.898Z,101469.16
2022-12-24T07:10:56.679Z,101474.28
2022-12-24T07:13:23.561Z,101469.00
2022-12-24T07:16:00.933Z,101462.88
2022-12-24T07:18:28.386Z,101466.22
2022-12-24T07:20:55.169Z,101479.72
2022-12-24T07:23:22.066Z,101465.09
2022-12-24T07:25:48.894Z,101453.91
2022-12-24T07:28:15.763Z,101450.44
2022-12-24T07:30:42.664Z,101463.25
2022-12-24T07:33:09.579Z,101465.78
2022-12-24T07:35:41.044Z,101464.91
2022-12-24T07:38:08.100Z,101463.16
2022-12-24T07:40:35.412Z,101476.03
2022-12-24T07:43:05.734Z,101480.25
2022-12-24T07:45:32.722Z,101482.88
2022-12-24T07:47:59.448Z,101475.91
2022-12-24T07:50:26.284Z,101482.78
2022-12-24T07:52:56.724Z,101505.06
2022-12-24T07:55:23.690Z,101503.38
2022-12-24T07:57:50.681Z,101505.94
2022-12-24T08:00:17.914Z,101514.59
2022-12-24T08:02:44.930Z,101522.41
2022-12-24T08:05:12.471Z,101509.50
2022-12-24T08:07:39.417Z,101507.72
2022-12-24T08:10:07.452Z,101508.56
2022-12-24T08:12:34.214Z,101515.50
2022-12-24T08:15:03.674Z,101507.78
2022-12-24T08:17:32.577Z,101513.78
2022-12-24T08:19:59.790Z,101520.66
2022-12-24T08:22:26.648Z,101522.41
2022-12-24T08:24:53.586Z,101518.19
2022-12-24T08:27:20.841Z,101516.53
2022-12-24T08:29:47.685Z,101506.19
2022-12-24T08:32:14.536Z,101507.94
2022-12-24T08:34:41.513Z,101515.69
2022-12-24T08:37:08.397Z,101532.97
2022-12-24T08:39:35.400Z,101540.75
2022-12-24T08:42:02.209Z,101548.63
2022-12-24T08:44:29.151Z,101538.31
2022-12-24T08:46:55.936Z,101551.19
2022-12-24T08:49:22.899Z,101546.03
2022-12-24T08:51:51.608Z,101565.03
2022-12-24T08:54:18.917Z,101571.09
2022-12-24T08:56:46.045Z,101562.56
2022-12-24T08:59:12.972Z,101569.63
2022-12-24T09:01:39.969Z,101566.19
2022-12-24T09:04:06.931Z,101567.22
2022-12-24T09:06:33.873Z,101570.78
2022-12-24T09:09:00.930Z,101558.88
2022-12-24T09:11:28.159Z,101566.72
2022-12-24T09:13:55.411Z,101581.50
2022-12-24T09:16:22.257Z,101585.19
2022-12-24T09:18:49.845Z,101580.16
2022-12-24T09:21:18.863Z,101582.78
2022-12-24T09:23:47.971Z,101586.16
2022-12-24T09:26:19.403Z,101582.00
2022-12-24T09:28:46.759Z,101574.34
2022-12-24T09:31:13.664Z,101581.38
2022-12-24T09:33:42.444Z,101580.63
2022-12-24T09:36:09.690Z,101587.50
2022-12-24T09:38:37.805Z,101587.53
2022-12-24T09:41:14.818Z,101573.03
2022-12-24T09:43:49.374Z,101575.66
2022-12-24T09:46:28.343Z,101582.59
2022-12-24T09:49:02.382Z,101567.16
2022-12-24T09:51:37.177Z,101572.44
2022-12-24T09:54:11.873Z,101567.28
2022-12-24T09:56:41.315Z,101580.25
2022-12-24T09:59:15.734Z,101575.22
2022-12-24T10:01:42.779Z,101589.91
2022-12-24T10:04:16.398Z,101600.34
2022-12-24T10:07:11.515Z,101593.63
2022-12-24T10:09:53.246Z,101600.59
2022-12-24T10:12:23.819Z,101598.03
2022-12-24T10:15:26.327Z,101600.66
2022-12-24T10:18:02.103Z,101609.31
2022-12-24T10:20:31.955Z,101615.38
2022-12-24T10:23:08.377Z,101601.59
2022-12-24T10:25:44.925Z,101597.28
2022-12-24T10:28:18.822Z,101600.69
2022-12-24T10:30:49.840Z,101592.09
2022-12-24T10:33:31.121Z,101587.13
2022-12-24T10:35:58.822Z,101579.41
2022-12-24T10:38:26.817Z,101583.66
2022-12-24T10:40:59.200Z,101597.47
2022-12-24T10:43:29.476Z,101587.22
2022-12-24T10:46:03.613Z,101583.88
2022-12-24T10:48:30.465Z,101575.25
2022-12-24T10:51:14.968Z,101579.59
2022-12-24T10:53:51.334Z,101577.94
2022-12-24T10:56:22.779Z,101593.50
2022-12-24T10:58:54.802Z,101600.41
2022-12-24T11:01:49.482Z,101610.72
2022-12-24T11:04:22.434Z,101613.25
2022-12-24T11:07:00.028Z,101617.50
2022-12-24T11:09:41.286Z,101610.53
2022-12-24T11:12:19.201Z,101616.47
2022-12-24T11:14:46.219Z,101612.06
2022-12-24T11:17:33.833Z,101612.97
2022-12-24T11:20:03.449Z,101616.34
2022-12-24T11:22:32.596Z,101613.81
2022-12-24T11:25:18.854Z,101611.22
2022-12-24T11:27:50.628Z,101617.28
2022-12-24T11:30:19.826Z,101618.25
2022-12-24T11:32:49.651Z,101619.03
2022-12-24T11:35:23.437Z,101612.97
2022-12-24T11:38:18.524Z,101612.97
2022-12-24T11:40:49.278Z,101601.75
2022-12-24T11:43:19.064Z,101596.59
2022-12-24T11:45:51.930Z,101595.69
2022-12-24T11:48:29.109Z,101596.50
2022-12-24T11:50:59.085Z,101582.69
2022-12-24T11:53:34.855Z,101576.59
2022-12-24T11:56:08.976Z,101578.28
2022-12-24T11:58:42.885Z,101579.28
2022-12-24T12:01:31.246Z,101582.72
2022-12-24T12:04:02.559Z,101602.53
2022-12-24T12:06:43.054Z,101617.06
2022-12-24T12:09:41.696Z,101618.75
2022-12-24T12:12:30.184Z,101608.38
2022-12-24T12:15:20.470Z,101563.47
2022-12-24T12:17:58.935Z,101554.88
2022-12-24T12:20:27.815Z,101534.19
2022-12-24T12:23:15.860Z,101534.16
2022-12-24T12:26:07.071Z,101532.38
2022-12-24T12:28:43.598Z,101557.38
2022-12-24T12:31:17.056Z,101569.47
2022-12-24T12:33:55.368Z,101569.41
2022-12-24T12:36:40.417Z,101567.66
2022-12-24T12:39:09.724Z,101579.63
2022-12-24T12:42:01.410Z,101584.88
2022-12-24T12:44:41.841Z,101587.53
2022-12-24T12:47:27.106Z,101579.69
2022-12-24T12:50:12.923Z,101576.16
2022-12-24T12:53:01.473Z,101587.31
2022-12-24T12:55:51.482Z,101581.25
2022-12-24T12:58:25.782Z,101578.66
2022-12-24T13:01:18.162Z,101577.78
2022-12-24T13:04:23.254Z,101574.38
2022-12-24T13:07:18.891Z,101576.09
2022-12-24T13:09:57.600Z,101579.50
2022-12-24T13:12:51.918Z,101590.69
2022-12-24T13:15:39.785Z,101576.06
2022-12-24T13:18:12.500Z,101577.72
2022-12-24T13:20:47.739Z,101584.63
2022-12-24T13:23:24.039Z,101579.50
2022-12-24T13:25:56.616Z,101591.53
2022-12-24T13:28:23.809Z,101588.16
2022-12-24T13:31:25.944Z,101576.97
2022-12-24T13:34:00.611Z,101587.41
2022-12-24T13:37:16.722Z,101594.41
2022-12-24T13:40:03.968Z,101595.16
2022-12-24T13:42:52.363Z,101597.69
2022-12-24T13:45:44.669Z,101598.41
2022-12-24T13:48:11.921Z,101605.13
2022-12-24T13:51:24.017Z,101607.69
2022-12-24T13:53:59.141Z,101606.72
2022-12-24T13:56:28.832Z,101600.72
2022-12-24T13:59:11.616Z,101592.97
2022-12-24T14:01:43.051Z,101591.19
2022-12-24T14:04:24.954Z,101586.91
2022-12-24T14:06:54.052Z,101587.72
2022-12-24T14:09:25.504Z,101591.19
2022-12-24T14:12:01.829Z,101598.94
2022-12-24T14:14:30.472Z,101603.25
2022-12-24T14:17:14.027Z,101605.00
2022-12-24T14:19:43.964Z,101600.72
2022-12-24T14:22:26.240Z,101614.56
2022-12-24T14:25:04.043Z,101609.41
2022-12-24T14:27:46.677Z,101607.69
2022-12-24T14:30:21.576Z,101613.69
2022-12-24T14:32:50.390Z,101626.63
2022-12-24T14:35:19.003Z,101610.34
2022-12-24T14:38:07.629Z,101613.06
2022-12-24T14:40:43.117Z,101624.38
2022-12-24T14:43:22.627Z,101621.75
2022-12-24T14:46:17.031Z,101625.09
2022-12-24T14:49:15.581Z,101625.78
2022-12-24T14:52:03.875Z,101625.63
2022-12-24T14:54:38.708Z,101622.06
2022-12-24T14:57:14.854Z,101632.41
2022-12-24T14:59:59.989Z,101639.16
2022-12-24T15:02:47.481Z,101650.28
2022-12-24T15:05:16.683Z,101657.16
2022-12-24T15:07:54.841Z,101653.75
2022-12-24T15:10:31.795Z,101650.22
2022-12-24T15:13:04.089Z,101652.00
2022-12-24T15:15:33.027Z,101646.03
2022-12-24T15:18:00.845Z,101653.84
2022-12-24T15:20:29.799Z,101646.84
2022-12-24T15:22:58.850Z,101651.19
2022-12-24T15:25:29.920Z,101647.75
2022-12-24T15:27:58.300Z,101656.44
2022-12-24T15:30:28.577Z,101655.53
2022-12-24T15:32:58.159Z,101655.50
2022-12-24T15:35:45.917Z,101656.34
2022-12-24T15:38:31.782Z,101654.72
2022-12-24T15:41:00.653Z,101653.00
2022-12-24T15:43:27.952Z,101657.34
2022-12-24T15:45:55.489Z,101667.66
2022-12-24T15:48:29.520Z,101667.63
2022-12-24T15:51:00.420Z,101662.44
2022-12-24T15:53:43.988Z,101677.94
2022-12-24T15:56:36.455Z,101684.00
2022-12-24T15:59:28.431Z,101682.22
2022-12-24T16:01:55.543Z,101686.44
2022-12-24T16:04:28.026Z,101676.06
2022-12-24T16:07:08.076Z,101690.75
2022-12-24T16:09:45.773Z,101689.91
2022-12-24T16:12:24.857Z,101698.44
2022-12-24T16:14:56.489Z,101705.50
2022-12-24T16:17:26.288Z,101706.38
2022-12-24T16:19:57.064Z,101710.63
2022-12-24T16:22:35.502Z,101705.38
2022-12-24T16:25:23.060Z,101706.19
2022-12-24T16:27:50.751Z,101721.72
2022-12-24T16:30:19.219Z,101716.56
2022-12-24T16:32:48.397Z,101717.34
2022-12-24T16:35:26.210Z,101724.31
2022-12-24T16:37:54.146Z,101731.13
2022-12-24T16:40:26.948Z,101732.00
2022-12-24T16:43:14.334Z,101743.16
2022-12-24T16:45:41.930Z,101738.75
2022-12-24T16:48:09.065Z,101741.38
2022-12-24T16:50:36.177Z,101743.09
2022-12-24T16:53:03.053Z,101746.66
2022-12-24T16:55:30.076Z,101750.09
2022-12-24T16:57:56.968Z,101740.69
2022-12-24T17:00:25.653Z,101745.88
2022-12-24T17:02:53.647Z,101751.09
2022-12-24T17:05:23.836Z,101753.66
2022-12-24T17:07:51.699Z,101751.09
2022-12-24T17:10:18.858Z,101757.97
2022-12-24T17:12:46.047Z,101751.94
2022-12-24T17:15:13.062Z,101753.72
2022-12-24T17:17:39.909Z,101755.41
2022-12-24T17:20:07.952Z,101747.72
2022-12-24T17:22:36.227Z,101755.44
2022-12-24T17:25:03.839Z,101764.91
2022-12-24T17:27:30.797Z,101758.91
2022-12-24T17:29:57.977Z,101765.00
2022-12-24T17:32:27.972Z,101762.38
2022-12-24T17:34:55.012Z,101763.19
2022-12-24T17:37:21.956Z,101765.84
2022-12-24T17:39:48.878Z,101765.00
2022-12-24T17:42:15.878Z,101774.53
2022-12-24T17:44:44.611Z,101774.56
2022-12-24T17:47:11.510Z,101772.75
2022-12-24T17:49:38.468Z,101764.09
2022-12-24T17:52:07.308Z,101765.78
2022-12-24T17:54:34.180Z,101779.66
2022-12-24T17:57:01.907Z,101777.00
2022-12-24T17:59:28.946Z,101775.34
2022-12-24T18:01:55.953Z,101768.47
2022-12-24T18:04:22.968Z,101767.66
2022-12-24T18:06:50.113Z,101766.84
2022-12-24T18:09:17.521Z,101769.44
2022-12-24T18:11:44.713Z,101766.78
2022-12-24T18:14:14.193Z,101771.94
2022-12-24T18:16:42.725Z,101777.88
2022-12-24T18:19:12.906Z,101779.63
2022-12-24T18:21:41.003Z,101771.00
2022-12-24T18:24:09.328Z,101764.97
2022-12-24T18:26:36.362Z,101765.81
2022-12-24T18:29:04.819Z,101773.50
2022-12-24T18:31:34.178Z,101774.31
2022-12-24T18:34:02.778Z,101767.28
2022-12-24T18:36:30.117Z,101768.03
2022-12-24T18:38:57.199Z,101775.78
2022-12-24T18:41:27.959Z,101773.97
2022-12-24T18:43:55.800Z,101785.13
2022-12-24T18:46:25.446Z,101784.16
2022-12-24T18:48:54.234Z,101792.75
2022-12-24T18:51:22.876Z,101789.28
2022-12-24T18:53:50.890Z,101790.97
2022-12-24T18:56:20.659Z,101790.97
2022-12-24T18:58:48.360Z,101785.75
2022-12-24T19:01:18.380Z,101788.34
2022-12-24T19:03:45.845Z,101783.13
2022-12-24T19:06:13.063Z,101789.97
2022-12-24T19:08:57.719Z,101791.72
2022-12-24T19:11:28.619Z,101801.19
2022-12-24T19:13:55.697Z,101796.88
2022-12-24T19:16:22.899Z,101804.63
2022-12-24T19:18:50.389Z,101799.50
2022-12-24T19:21:18.953Z,101803.94
2022-12-24T19:23:47.257Z,101810.13
2022-12-24T19:26:16.452Z,101817.13
2022-12-24T19:28:43.772Z,101816.25
2022-12-24T19:31:14.158Z,101827.28
2022-12-24T19:33:43.979Z,101835.81
2022-12-24T19:36:14.685Z,101840.16
2022-12-24T19:38:41.898Z,101839.34
2022-12-24T19:41:12.740Z,101834.19
2022-12-24T19:43:42.829Z,101839.28
2022-12-24T19:46:12.635Z,101845.19
2022-12-24T19:48:40.562Z,101847.72
2022-12-24T19:51:09.921Z,101849.56
2022-12-24T19:53:37.736Z,101852.19
2022-12-24T19:56:05.752Z,101851.28
2022-12-24T19:58:35.486Z,101858.19
2022-12-24T20:01:12.709Z,101870.31
2022-12-24T20:03:42.427Z,101861.72
2022-12-24T20:06:09.339Z,101869.47
2022-12-24T20:08:37.785Z,101860.94
2022-12-24T20:11:10.858Z,101867.00
2022-12-24T20:13:39.191Z,101868.81
2022-12-24T20:16:14.535Z,101870.50
2022-12-24T20:18:41.784Z,101871.31
2022-12-24T20:21:11.429Z,101872.22
2022-12-24T20:23:41.987Z,101873.91
2022-12-24T20:26:12.523Z,101877.38
2022-12-24T20:28:40.480Z,101873.09
2022-12-24T20:31:16.032Z,101873.09
2022-12-24T20:33:44.562Z,101882.50
2022-12-24T20:36:17.733Z,101875.59
2022-12-24T20:38:46.263Z,101897.16
2022-12-24T20:41:15.344Z,101892.91
2022-12-24T20:43:47.884Z,101894.53
2022-12-24T20:46:19.744Z,101900.50
2022-12-24T20:48:47.127Z,101904.78
2022-12-24T20:51:23.881Z,101904.81
2022-12-24T20:53:57.384Z,101909.16
2022-12-24T20:56:24.937Z,101903.97
2022-12-24T20:58:52.564Z,101910.94
2022-12-24T21:01:26.162Z,101914.53
2022-12-24T21:03:54.940Z,101911.06
2022-12-24T21:06:23.883Z,101918.03
2022-12-24T21:08:51.925Z,101923.19
2022-12-24T21:11:41.138Z,101930.09
2022-12-24T21:14:08.815Z,101931.72
2022-12-24T21:16:37.668Z,101934.38
2022-12-24T21:19:06.010Z,101937.69
2022-12-24T21:21:34.768Z,101938.44
2022-12-24T21:24:02.440Z,101933.19
2022-12-24T21:26:29.448Z,101934.16
2022-12-24T21:28:56.392Z,101943.50
2022-12-24T21:31:23.429Z,101943.41
2022-12-24T21:33:50.357Z,101951.09
2022-12-24T21:36:17.611Z,101945.81
2022-12-24T21:38:44.563Z,101952.69
2022-12-24T21:41:17.697Z,101955.25
2022-12-24T21:43:45.775Z,101949.19
2022-12-24T21:46:16.739Z,101957.72
2022-12-24T21:49:04.323Z,101955.16
2022-12-24T21:51:32.642Z,101966.31
2022-12-24T21:54:18.010Z,101957.72
2022-12-24T21:57:03.739Z,101964.59
2022-12-24T21:59:31.088Z,101964.66
2022-12-24T22:02:03.641Z,101966.38
2022-12-24T22:04:32.533Z,101964.59
2022-12-24T22:07:18.389Z,101964.53
2022-12-24T22:10:05.065Z,101959.28
2022-12-24T22:12:33.031Z,101964.53
2022-12-24T22:14:59.996Z,101963.59
2022-12-24T22:17:28.362Z,101962.75
2022-12-24T22:19:55.701Z,101961.91
2022-12-24T22:22:23.466Z,101973.06
2022-12-24T22:24:50.653Z,101969.63
2022-12-24T22:27:17.773Z,101970.47
2022-12-24T22:29:44.979Z,101972.22
2022-12-24T22:32:12.011Z,101974.84
2022-12-24T22:34:38.770Z,101966.16
2022-12-24T22:37:05.829Z,101975.63
2022-12-24T22:39:32.645Z,101977.28
2022-12-24T22:41:59.461Z,101980.75
2022-12-24T22:44:26.287Z,101974.69
2022-12-24T22:46:53.345Z,101982.47
2022-12-24T22:49:20.341Z,101979.00
2022-12-24T22:51:47.391Z,101986.69
2022-12-24T22:54:14.410Z,101980.59
2022-12-24T22:56:41.890Z,101984.94
2022-12-24T22:59:12.339Z,101984.09
2022-12-24T23:01:43.566Z,101984.97
2022-12-24T23:04:14.508Z,101990.13
2022-12-24T23:06:42.010Z,101997.00
2022-12-24T23:09:11.857Z,101997.91
2022-12-24T23:11:40.506Z,101995.34
2022-12-24T23:14:26.088Z,101999.66
2022-12-24T23:16:53.337Z,102001.31
2022-12-24T23:19:21.763Z,101996.13
2022-12-24T23:21:48.887Z,102003.00
2022-12-24T23:24:15.684Z,102003.06
2022-12-24T23:26:42.551Z,101998.72
2022-12-24T23:29:09.559Z,102002.22
2022-12-24T23:31:37.840Z,102000.44
2022-12-24T23:34:05.396Z,101998.72
2022-12-24T23:36:32.964Z,101997.84
2022-12-24T23:38:59.851Z,101994.41
2022-12-24T23:41:26.911Z,101995.28
2022-12-24T23:43:53.821Z,101990.91
2022-12-24T23:46:21.104Z,101995.25
2022-12-24T23:48:48.941Z,101992.63
2022-12-24T23:51:23.748Z,101991.75
2022-12-24T23:53:52.794Z,101996.94
2022-12-24T23:56:21.002Z,101998.56
2022-12-24T23:58:48.587Z,101990.69
